Time;durP1;ratioP1;P1;durP2;ratioP2;P2;SDS_P1;SDS_P2;PMS_P1;PMS_P2;Temp;Humidity;BMP_temperature;BMP_pressure;BME280_temperature;BME280_humidity;BME280_pressure;Samples;Min_cycle;Max_cycle;Signal;HPM_P1;HPM_P2
2023/08/11 00:02:13;;;;;;;4.88;3.50;;;16.40;99.90;;;;;;5050414;28;20404;-88
2023/08/11 00:04:39;;;;;;;4.17;3.53;;;16.20;99.90;;;;;;5051543;28;20394;-89
2023/08/11 00:07:05;;;;;;;3.95;3.50;;;16.00;99.90;;;;;;5067698;28;20406;-89
2023/08/11 00:09:30;;;;;;;3.70;3.40;;;16.10;99.90;;;;;;5067892;28;20933;-90
2023/08/11 00:11:56;;;;;;;3.73;3.27;;;16.00;99.90;;;;;;5051717;28;20414;-90
2023/08/11 00:14:22;;;;;;;4.60;3.53;;;16.00;99.90;;;;;;5067173;28;20900;-90
2023/08/11 00:16:48;;;;;;;3.97;3.58;;;16.10;99.90;;;;;;5051843;28;20416;-90
2023/08/11 00:19:13;;;;;;;4.57;3.70;;;15.80;99.90;;;;;;5050334;28;20462;-89
2023/08/11 00:21:39;;;;;;;3.90;3.50;;;15.80;99.90;;;;;;5068215;28;20398;-90
2023/08/11 00:24:05;;;;;;;4.07;3.67;;;15.80;99.90;;;;;;5067320;28;20736;-89
2023/08/11 00:26:30;;;;;;;4.68;3.80;;;15.70;99.90;;;;;;5067861;28;20402;-89
2023/08/11 00:28:57;;;;;;;5.23;3.80;;;15.70;99.90;;;;;;5051475;28;20425;-88
2023/08/11 00:31:22;;;;;;;4.55;4.13;;;15.60;99.90;;;;;;5067128;28;20406;-90
2023/08/11 00:33:51;;;;;;;5.13;4.07;;;15.50;99.90;;;;;;5051242;28;20906;-89
2023/08/11 00:36:17;;;;;;;4.85;4.30;;;15.60;99.90;;;;;;5066604;28;20433;-89
2023/08/11 00:38:43;;;;;;;5.32;4.32;;;15.50;99.90;;;;;;5051313;28;20405;-88
2023/08/11 00:41:10;;;;;;;4.50;4.10;;;15.60;99.90;;;;;;5066978;28;20410;-89
2023/08/11 00:43:36;;;;;;;5.60;4.70;;;15.40;99.90;;;;;;5067778;28;20410;-89
2023/08/11 00:46:10;;;;;;;5.63;4.80;;;15.80;99.90;;;;;;5067788;28;20390;-89
2023/08/11 00:48:39;;;;;;;5.95;4.95;;;15.70;99.90;;;;;;5052617;28;20429;-89
2023/08/11 00:51:05;;;;;;;5.95;5.20;;;15.30;99.90;;;;;;5052717;28;20398;-89
2023/08/11 00:53:33;;;;;;;5.63;5.03;;;15.30;99.90;;;;;;5068702;28;20402;-90
2023/08/11 00:56:01;;;;;;;6.82;5.90;;;15.20;99.90;;;;;;5053663;28;20923;-90
2023/08/11 00:58:28;;;;;;;6.13;5.53;;;15.20;99.90;;;;;;5053108;28;20406;-89
2023/08/11 01:00:54;;;;;;;6.25;5.65;;;15.20;99.90;;;;;;5071347;28;20513;-90
2023/08/11 01:03:19;;;;;;;6.73;5.93;;;15.20;99.90;;;;;;5054093;28;20489;-89
2023/08/11 01:06:10;;;;;;;6.95;6.22;;;15.10;99.90;;;;;;5069242;28;20406;-90
2023/08/11 01:08:48;;;;;;;7.95;7.13;;;15.10;99.90;;;;;;5053979;28;20832;-89
2023/08/11 01:11:36;;;;;;;8.50;7.70;;;15.30;99.90;;;;;;5053331;28;20406;-88
2023/08/11 01:14:09;;;;;;;9.77;8.77;;;15.50;99.90;;;;;;5070285;28;20809;-88
2023/08/11 01:16:36;;;;;;;9.73;8.52;;;15.00;99.90;;;;;;5054391;28;20421;-89
2023/08/11 01:19:05;;;;;;;8.27;7.47;;;15.00;99.90;;;;;;5069679;28;20430;-90
2023/08/11 01:21:34;;;;;;;9.73;8.38;;;15.00;99.90;;;;;;5070335;28;20406;-90
2023/08/11 01:24:01;;;;;;;9.63;8.73;;;15.10;99.90;;;;;;5069516;28;20433;-88
2023/08/11 01:26:27;;;;;;;9.33;8.33;;;15.00;99.90;;;;;;5053624;28;20813;-91
2023/08/11 01:28:54;;;;;;;10.68;9.68;;;15.20;99.90;;;;;;5069501;28;20472;-90
2023/08/11 01:31:19;;;;;;;10.70;9.70;;;15.00;99.90;;;;;;5053184;28;20446;-89
2023/08/11 01:33:45;;;;;;;10.80;9.73;;;15.00;99.90;;;;;;5053377;28;20489;-89
2023/08/11 01:36:11;;;;;;;10.50;9.40;;;15.00;99.90;;;;;;5051869;28;20480;-89
2023/08/11 01:38:37;;;;;;;10.35;9.35;;;15.00;99.90;;;;;;5053717;28;20911;-89
2023/08/11 01:41:02;;;;;;;10.23;9.13;;;14.90;99.90;;;;;;5052151;28;20953;-89
2023/08/11 01:43:29;;;;;;;11.37;9.67;;;15.00;99.90;;;;;;5053461;28;20406;-89
2023/08/11 01:45:56;;;;;;;12.98;11.68;;;14.90;99.90;;;;;;5052411;28;21004;-89
2023/08/11 01:48:26;;;;;;;10.50;9.52;;;14.90;99.90;;;;;;5087812;28;20406;-88
2023/08/11 01:50:52;;;;;;;11.02;10.02;;;14.90;99.90;;;;;;5068894;28;20473;-90
2023/08/11 01:53:18;;;;;;;13.40;12.13;;;14.90;99.90;;;;;;5069337;28;20438;-90
2023/08/11 01:55:44;;;;;;;12.03;10.93;;;14.80;99.90;;;;;;5070030;28;20448;-89
2023/08/11 01:58:10;;;;;;;12.20;11.00;;;14.80;99.90;;;;;;5068479;28;20414;-89
2023/08/11 02:00:36;;;;;;;12.93;11.73;;;14.80;99.90;;;;;;5070467;28;20434;-89
2023/08/11 02:03:02;;;;;;;12.47;11.37;;;14.70;99.90;;;;;;5052105;28;20450;-88
2023/08/11 02:05:29;;;;;;;13.33;12.03;;;14.70;99.90;;;;;;5052394;28;20445;-89
2023/08/11 02:07:55;;;;;;;14.00;12.68;;;14.60;99.90;;;;;;5052512;28;20914;-88
2023/08/11 02:10:21;;;;;;;14.18;12.77;;;14.70;99.90;;;;;;5052947;28;20440;-90
2023/08/11 02:12:47;;;;;;;14.00;12.70;;;14.80;99.90;;;;;;5052749;28;20902;-89
2023/08/11 02:15:13;;;;;;;13.57;12.35;;;14.90;99.90;;;;;;5051667;28;20402;-90
2023/08/11 02:17:39;;;;;;;16.17;14.52;;;14.70;99.90;;;;;;5053385;28;20765;-89
2023/08/11 02:20:21;;;;;;;15.20;13.77;;;14.60;99.90;;;;;;5051354;28;20429;-89
2023/08/11 02:22:47;;;;;;;16.45;14.85;;;14.60;99.90;;;;;;5069541;28;20406;-89
2023/08/11 02:25:13;;;;;;;16.70;15.00;;;14.70;99.90;;;;;;5052411;28;20759;-90
2023/08/11 02:27:39;;;;;;;16.13;14.60;;;14.60;99.90;;;;;;5068502;28;21028;-88
2023/08/11 02:30:06;;;;;;;17.85;16.17;;;14.40;99.90;;;;;;5052815;28;20410;-89
2023/08/11 02:32:32;;;;;;;16.38;14.82;;;14.60;99.90;;;;;;5051369;28;20417;-90
2023/08/11 02:34:58;;;;;;;17.27;15.68;;;14.50;99.90;;;;;;5052284;28;20405;-88
2023/08/11 02:37:23;;;;;;;19.57;17.77;;;14.50;99.90;;;;;;5068150;28;20870;-89
2023/08/11 02:39:49;;;;;;;16.77;15.23;;;14.50;99.90;;;;;;5052833;28;20425;-90
2023/08/11 02:42:14;;;;;;;17.80;16.10;;;14.50;99.90;;;;;;5067874;28;20398;-89
2023/08/11 02:44:40;;;;;;;19.95;18.15;;;14.50;99.90;;;;;;5069045;28;20889;-89
2023/08/11 02:47:06;;;;;;;19.00;17.27;;;14.50;99.90;;;;;;5052042;28;20409;-88
2023/08/11 02:49:32;;;;;;;19.98;17.52;;;14.80;99.90;;;;;;5066934;28;20997;-89
2023/08/11 02:51:58;;;;;;;21.60;19.33;;;14.50;99.90;;;;;;5052244;28;20447;-89
2023/08/11 02:54:23;;;;;;;22.70;20.42;;;14.50;99.90;;;;;;5067691;28;20418;-90
2023/08/11 02:56:49;;;;;;;23.17;21.07;;;14.40;99.90;;;;;;5052324;28;20895;-88
2023/08/11 02:59:15;;;;;;;22.40;20.23;;;14.40;99.90;;;;;;5051115;28;20989;-88
2023/08/11 03:01:40;;;;;;;21.15;19.25;;;14.80;99.90;;;;;;5068910;28;20426;-89
2023/08/11 03:04:07;;;;;;;23.53;21.30;;;14.50;99.90;;;;;;5051778;28;20459;-88
2023/08/11 03:06:32;;;;;;;22.33;20.33;;;14.40;99.90;;;;;;5050876;28;20421;-90
2023/08/11 03:08:58;;;;;;;23.70;21.52;;;14.40;99.90;;;;;;5051973;28;20406;-90
2023/08/11 03:11:23;;;;;;;23.10;20.97;;;14.40;99.90;;;;;;5051014;28;20417;-89
2023/08/11 03:13:49;;;;;;;24.52;22.25;;;14.50;99.90;;;;;;5052277;28;20406;-90
2023/08/11 03:16:15;;;;;;;23.17;21.00;;;14.40;99.90;;;;;;5050772;28;20489;-88
2023/08/11 03:18:40;;;;;;;26.33;23.92;;;14.40;99.90;;;;;;5068216;28;20398;-89
2023/08/11 03:21:07;;;;;;;22.50;20.40;;;14.30;99.90;;;;;;5050396;28;20405;-89
2023/08/11 03:23:34;;;;;;;23.88;21.67;;;14.50;99.90;;;;;;5067980;28;20433;-89
2023/08/11 03:25:59;;;;;;;26.20;23.80;;;14.30;99.90;;;;;;5068167;28;20509;-89
2023/08/11 03:28:25;;;;;;;25.90;23.50;;;14.40;99.90;;;;;;5050895;28;20535;-89
2023/08/11 03:30:51;;;;;;;22.70;20.63;;;14.30;99.90;;;;;;5068607;28;20410;-89
2023/08/11 03:33:17;;;;;;;24.45;22.25;;;14.30;99.90;;;;;;5049734;28;20406;-90
2023/08/11 03:35:42;;;;;;;26.20;23.90;;;14.30;99.90;;;;;;5067943;28;21036;-90
2023/08/11 03:38:08;;;;;;;25.77;23.38;;;14.20;99.90;;;;;;5067060;28;20505;-89
2023/08/11 03:40:34;;;;;;;34.90;24.23;;;14.20;99.90;;;;;;5051028;28;20934;-89
2023/08/11 03:42:59;;;;;;;23.83;21.70;;;14.20;99.90;;;;;;5048411;28;20398;-89
2023/08/11 03:45:25;;;;;;;26.93;24.47;;;14.20;99.90;;;;;;5049316;28;20402;-89
2023/08/11 03:47:50;;;;;;;25.65;23.35;;;14.20;99.90;;;;;;5068181;28;20797;-89
2023/08/11 03:50:16;;;;;;;27.77;25.33;;;14.20;99.90;;;;;;5049646;28;20418;-89
2023/08/11 03:52:42;;;;;;;24.83;22.52;;;14.30;99.90;;;;;;5051650;28;20516;-89
2023/08/11 03:55:09;;;;;;;28.17;25.57;;;14.30;99.90;;;;;;5050179;28;20412;-90
2023/08/11 03:57:36;;;;;;;25.38;23.00;;;14.20;99.90;;;;;;5051600;28;20408;-90
2023/08/11 04:00:05;;;;;;;25.00;22.63;;;14.20;99.90;;;;;;5050489;28;20433;-90
2023/08/11 04:02:31;;;;;;;24.55;22.40;;;14.20;99.90;;;;;;5068045;28;20447;-91
2023/08/11 04:04:57;;;;;;;27.53;25.03;;;14.10;99.90;;;;;;5065139;28;20407;-89
2023/08/11 04:07:22;;;;;;;25.77;23.50;;;14.10;99.90;;;;;;5047171;28;20404;-89
2023/08/11 04:09:48;;;;;;;26.30;23.98;;;14.10;99.90;;;;;;5060747;28;20431;-89
2023/08/11 04:12:14;;;;;;;23.50;21.50;;;14.10;99.90;;;;;;5030013;28;20502;-89
2023/08/11 04:14:39;;;;;;;26.23;23.92;;;14.10;99.90;;;;;;5056744;28;20398;-89
2023/08/11 04:17:05;;;;;;;28.57;25.93;;;14.10;99.90;;;;;;5050544;28;20417;-89
2023/08/11 04:19:32;;;;;;;28.50;25.85;;;14.10;99.90;;;;;;5050696;28;20426;-90
2023/08/11 04:21:57;;;;;;;28.02;25.38;;;14.10;99.90;;;;;;5052334;28;20409;-89
2023/08/11 04:24:23;;;;;;;27.95;25.35;;;14.10;99.90;;;;;;5070933;28;20801;-90
2023/08/11 04:26:52;;;;;;;29.00;26.35;;;14.10;99.90;;;;;;5089908;28;20494;-89
2023/08/11 04:29:17;;;;;;;28.70;25.90;;;14.20;99.90;;;;;;5053519;28;20837;-89
2023/08/11 04:31:43;;;;;;;28.60;26.08;;;14.60;99.90;;;;;;5055339;28;20436;-89
2023/08/11 04:34:10;;;;;;;30.10;27.30;;;14.20;99.90;;;;;;5053926;28;20409;-89
2023/08/11 04:36:36;;;;;;;27.73;25.15;;;14.60;99.90;;;;;;5054252;28;20401;-91
2023/08/11 04:39:03;;;;;;;29.02;26.23;;;14.20;99.90;;;;;;5053864;28;20513;-90
2023/08/11 04:41:29;;;;;;;28.13;25.60;;;14.30;99.90;;;;;;5053625;28;20406;-90
2023/08/11 04:43:54;;;;;;;28.10;25.60;;;14.40;99.90;;;;;;5071636;28;20744;-89
2023/08/11 04:46:20;;;;;;;27.67;25.27;;;14.40;99.90;;;;;;5053858;28;20914;-90
2023/08/11 04:48:46;;;;;;;25.00;22.70;;;14.50;99.90;;;;;;5054691;28;20885;-89
2023/08/11 04:51:11;;;;;;;26.13;23.83;;;14.50;99.90;;;;;;5069751;28;20489;-88
2023/08/11 04:53:38;;;;;;;24.45;22.33;;;14.60;99.90;;;;;;5055078;28;20409;-90
2023/08/11 04:56:03;;;;;;;24.52;22.40;;;14.70;99.90;;;;;;5053694;28;20406;-89
2023/08/11 04:58:29;;;;;;;23.83;21.73;;;14.80;99.90;;;;;;5054235;28;20983;-89
2023/08/11 05:00:55;;;;;;;21.40;19.33;;;14.90;99.90;;;;;;5054570;28;20508;-89
2023/08/11 05:03:20;;;;;;;21.63;19.52;;;15.00;99.90;;;;;;5053519;28;20412;-89
2023/08/11 05:05:46;;;;;;;20.13;18.37;;;15.20;99.90;;;;;;5070793;28;20458;-89
2023/08/11 05:08:11;;;;;;;20.85;18.95;;;15.30;99.90;;;;;;5069390;28;20405;-90
2023/08/11 05:10:37;;;;;;;19.93;18.13;;;15.40;99.90;;;;;;5054053;28;20410;-89
2023/08/11 05:13:04;;;;;;;19.98;17.92;;;15.60;99.90;;;;;;5052694;28;21047;-88
2023/08/11 05:15:30;;;;;;;18.95;17.15;;;15.90;99.90;;;;;;5070655;28;20989;-88
2023/08/11 05:17:56;;;;;;;18.40;16.70;;;15.80;99.90;;;;;;5070550;28;20402;-89
2023/08/11 05:20:21;;;;;;;18.08;16.42;;;16.10;99.90;;;;;;5069519;28;20456;-89
2023/08/11 05:22:47;;;;;;;18.60;16.80;;;16.40;99.90;;;;;;5053399;28;20410;-89
2023/08/11 05:25:13;;;;;;;17.10;15.47;;;16.10;99.90;;;;;;5052175;28;20401;-88
2023/08/11 05:27:39;;;;;;;17.48;15.80;;;16.30;99.90;;;;;;5054118;28;20915;-89
2023/08/11 05:30:07;;;;;;;16.33;14.85;;;16.30;99.90;;;;;;5053006;28;20429;-89
2023/08/11 05:32:32;;;;;;;16.03;14.53;;;16.50;99.90;;;;;;5070246;28;20424;-89
2023/08/11 05:34:58;;;;;;;15.80;14.30;;;16.60;99.90;;;;;;5053184;28;20406;-88
2023/08/11 05:37:24;;;;;;;16.38;14.77;;;16.70;99.90;;;;;;5052421;28;20505;-89
2023/08/11 05:39:51;;;;;;;15.90;14.47;;;16.80;99.90;;;;;;5069942;28;20521;-89
2023/08/11 05:42:18;;;;;;;15.40;13.85;;;17.30;99.90;;;;;;5069087;28;20939;-87
2023/08/11 05:44:43;;;;;;;15.52;14.13;;;17.00;99.90;;;;;;5070103;28;20905;-88
2023/08/11 05:47:09;;;;;;;14.60;13.30;;;17.10;99.90;;;;;;5068487;28;20402;-89
2023/08/11 05:49:35;;;;;;;14.63;13.32;;;17.20;99.90;;;;;;5053168;28;20406;-90
2023/08/11 05:52:00;;;;;;;14.77;13.37;;;17.50;99.90;;;;;;5052030;28;20418;-88
2023/08/11 05:54:26;;;;;;;14.52;13.13;;;17.40;99.90;;;;;;5052452;28;20864;-89
2023/08/11 05:56:52;;;;;;;14.27;12.90;;;17.50;99.90;;;;;;5052909;28;20430;-88
2023/08/11 05:59:19;;;;;;;13.70;12.48;;;17.60;99.90;;;;;;5068904;28;20437;-89
2023/08/11 06:01:44;;;;;;;14.05;12.63;;;17.70;99.90;;;;;;5069792;28;20402;-89
2023/08/11 06:04:10;;;;;;;14.10;12.70;;;17.80;99.90;;;;;;5051735;28;20443;-88
2023/08/11 06:06:36;;;;;;;13.73;12.43;;;18.00;99.90;;;;;;5069678;28;20517;-90
2023/08/11 06:09:03;;;;;;;12.80;11.60;;;18.00;99.90;;;;;;5068271;28;20933;-89
2023/08/11 06:11:29;;;;;;;12.87;11.67;;;18.10;99.90;;;;;;5069550;28;20452;-90
2023/08/11 06:13:54;;;;;;;12.15;11.07;;;18.30;99.90;;;;;;5052689;28;20442;-89
2023/08/11 06:16:20;;;;;;;12.20;10.97;;;18.40;99.90;;;;;;5051508;28;20407;-89
2023/08/11 06:18:46;;;;;;;12.23;10.57;;;18.50;99.90;;;;;;5069724;28;20398;-89
2023/08/11 06:21:11;;;;;;;11.20;10.20;;;18.80;99.90;;;;;;5067321;28;20968;-89
2023/08/11 06:23:37;;;;;;;10.75;9.65;;;18.70;99.90;;;;;;5069523;28;20955;-89
2023/08/11 06:26:03;;;;;;;10.80;9.80;;;18.90;99.90;;;;;;5067008;28;21305;-89
2023/08/11 06:28:28;;;;;;;10.10;9.20;;;18.80;99.90;;;;;;5052192;28;20501;-89
2023/08/11 06:30:54;;;;;;;10.70;9.70;;;19.30;99.90;;;;;;5067992;28;20434;-89
2023/08/11 06:33:20;;;;;;;10.60;9.60;;;19.10;99.90;;;;;;5052054;28;20928;-89
2023/08/11 06:35:45;;;;;;;10.30;9.32;;;19.20;99.90;;;;;;5051332;28;20414;-88
2023/08/11 06:38:11;;;;;;;10.63;9.63;;;19.60;99.90;;;;;;5051244;28;20402;-89
2023/08/11 06:40:40;;;;;;;10.05;9.15;;;19.40;99.90;;;;;;5068888;28;20516;-89
2023/08/11 06:43:06;;;;;;;10.77;9.57;;;19.50;99.90;;;;;;5050595;28;20782;-89
2023/08/11 06:45:32;;;;;;;10.05;9.20;;;19.70;99.90;;;;;;5068108;28;20787;-90
2023/08/11 06:47:59;;;;;;;10.75;9.65;;;19.80;99.90;;;;;;5051124;28;20401;-89
2023/08/11 06:50:27;;;;;;;10.20;9.20;;;19.90;99.90;;;;;;5069077;28;20406;-89
2023/08/11 06:52:54;;;;;;;10.32;9.32;;;20.00;99.90;;;;;;5051579;28;20790;-89
2023/08/11 06:55:19;;;;;;;10.27;9.30;;;20.00;99.90;;;;;;5067577;28;20497;-89
2023/08/11 06:57:45;;;;;;;9.50;8.50;;;20.00;99.90;;;;;;5068851;28;20489;-89
2023/08/11 07:00:11;;;;;;;11.20;9.45;;;20.30;99.90;;;;;;5050819;28;20430;-89
2023/08/11 07:02:37;;;;;;;9.32;8.32;;;20.40;99.90;;;;;;5068945;28;20947;-89
2023/08/11 07:05:03;;;;;;;10.52;8.57;;;20.70;99.90;;;;;;5050819;28;20406;-88
2023/08/11 07:07:29;;;;;;;9.32;8.52;;;20.60;99.90;;;;;;5051593;28;20405;-90
2023/08/11 07:09:55;;;;;;;8.90;8.17;;;20.80;99.90;;;;;;5050779;28;20497;-88
2023/08/11 07:12:21;;;;;;;8.50;7.70;;;20.80;99.90;;;;;;5068441;28;20401;-90
2023/08/11 07:14:46;;;;;;;8.07;7.38;;;20.80;99.90;;;;;;5052056;28;20402;-90
2023/08/11 07:17:12;;;;;;;7.43;6.83;;;20.90;99.90;;;;;;5050292;28;20782;-90
2023/08/11 07:19:38;;;;;;;8.15;7.45;;;21.00;99.90;;;;;;5068988;28;20478;-89
2023/08/11 07:22:04;;;;;;;8.27;7.20;;;21.00;99.90;;;;;;5050245;28;20914;-90
2023/08/11 07:24:30;;;;;;;7.53;6.72;;;21.60;99.90;;;;;;5068517;28;20461;-89
2023/08/11 07:26:55;;;;;;;7.95;6.72;;;21.50;99.90;;;;;;5050513;28;20903;-90
2023/08/11 07:29:21;;;;;;;7.57;6.73;;;21.50;99.90;;;;;;5068699;28;20408;-89
2023/08/11 07:31:47;;;;;;;7.20;6.50;;;21.60;99.90;;;;;;5051908;28;20398;-88
2023/08/11 07:34:12;;;;;;;6.20;5.60;;;21.70;99.90;;;;;;5050708;28;20896;-89
2023/08/11 07:36:38;;;;;;;7.15;5.90;;;21.70;99.90;;;;;;5068557;28;20425;-89
2023/08/11 07:39:07;;;;;;;8.35;6.20;;;21.80;99.90;;;;;;5050101;28;20402;-90
2023/08/11 07:41:33;;;;;;;6.60;5.68;;;21.90;99.90;;;;;;5051811;28;20424;-90
2023/08/11 07:43:59;;;;;;;5.65;4.80;;;22.10;99.90;;;;;;5067980;28;20801;-88
2023/08/11 07:46:25;;;;;;;6.00;4.57;;;22.20;99.90;;;;;;5068371;28;20501;-90
2023/08/11 07:48:50;;;;;;;33.07;6.50;;;22.30;99.90;;;;;;5051429;28;20459;-89
2023/08/11 07:51:16;;;;;;;5.90;4.57;;;22.40;99.90;;;;;;5051328;28;20405;-87
2023/08/11 07:53:44;;;;;;;14.38;5.00;;;22.40;99.90;;;;;;5051252;28;20406;-90
2023/08/11 07:56:12;;;;;;;6.28;4.85;;;22.90;99.90;;;;;;5052212;28;20405;-90
2023/08/11 07:58:39;;;;;;;7.80;4.93;;;22.60;99.90;;;;;;5055965;28;20401;-90
2023/08/11 08:01:05;;;;;;;6.68;4.15;;;22.70;96.60;;;;;;5054085;28;20441;-90
2023/08/11 08:03:31;;;;;;;5.95;3.83;;;23.00;99.90;;;;;;5072765;28;20398;-91
2023/08/11 08:05:56;;;;;;;11.73;4.82;;;22.90;99.90;;;;;;5071691;28;20405;-89
2023/08/11 08:08:22;;;;;;;7.67;4.60;;;23.00;99.90;;;;;;5071368;28;20763;-90
2023/08/11 08:10:48;;;;;;;6.57;4.97;;;23.50;99.30;;;;;;5055692;28;20410;-90
2023/08/11 08:13:13;;;;;;;6.73;4.37;;;23.40;93.40;;;;;;5054671;28;20409;-90
2023/08/11 08:15:39;;;;;;;6.43;3.90;;;23.60;93.30;;;;;;5055708;28;20414;-90
2023/08/11 08:18:05;;;;;;;43.50;5.70;;;23.30;91.40;;;;;;5053918;28;20449;-91
2023/08/11 08:20:31;;;;;;;6.13;3.97;;;23.60;90.40;;;;;;5072078;28;20458;-90
2023/08/11 08:22:57;;;;;;;5.07;4.03;;;23.40;92.90;;;;;;5054166;28;20412;-89
2023/08/11 08:25:22;;;;;;;105.43;7.60;;;23.50;90.40;;;;;;5072174;28;20485;-91
2023/08/11 08:27:48;;;;;;;7.07;3.88;;;23.80;92.60;;;;;;5071630;28;20397;-89
2023/08/11 08:30:14;;;;;;;4.17;3.50;;;23.80;94.00;;;;;;5053988;28;20410;-90
2023/08/11 08:32:41;;;;;;;39.43;5.83;;;23.80;91.10;;;;;;5054981;28;20786;-90
2023/08/11 08:35:08;;;;;;;5.80;3.60;;;23.90;86.10;;;;;;5053974;28;20955;-90
2023/08/11 08:37:34;;;;;;;4.45;2.75;;;24.00;84.10;;;;;;5072083;28;20448;-90
2023/08/11 08:40:00;;;;;;;5.22;2.95;;;24.10;92.70;;;;;;5070161;28;20465;-90
2023/08/11 08:42:26;;;;;;;5.45;3.15;;;24.20;90.80;;;;;;5071650;28;20857;-90
2023/08/11 08:44:53;;;;;;;3.88;3.25;;;24.30;75.90;;;;;;5070930;28;20448;-89
2023/08/11 08:47:21;;;;;;;65.93;7.38;;;24.60;77.00;;;;;;5071185;28;20471;-88
2023/08/11 08:49:48;;;;;;;3.93;2.83;;;24.30;71.10;;;;;;5054902;28;20409;-90
2023/08/11 08:52:15;;;;;;;6.45;3.40;;;24.30;74.50;;;;;;5053855;28;20398;-90
2023/08/11 08:54:41;;;;;;;4.55;2.80;;;24.40;78.60;;;;;;5071523;28;20762;-89
2023/08/11 08:57:10;;;;;;;4.13;3.25;;;24.40;81.50;;;;;;5053125;28;20402;-91
2023/08/11 08:59:39;;;;;;;4.25;2.90;;;24.50;75.50;;;;;;5071139;28;20598;-89
2023/08/11 09:02:06;;;;;;;19.20;3.92;;;24.60;81.80;;;;;;5070181;28;20883;-89
2023/08/11 09:04:33;;;;;;;5.37;2.97;;;25.00;72.00;;;;;;5053473;28;20410;-90
2023/08/11 09:06:59;;;;;;;5.85;2.97;;;24.50;75.70;;;;;;5053326;28;20407;-89
2023/08/11 09:09:27;;;;;;;4.83;2.90;;;24.90;67.40;;;;;;5053202;28;20434;-90
2023/08/11 09:11:53;;;;;;;4.63;2.90;;;24.80;78.00;;;;;;5054595;28;20413;-90
2023/08/11 09:14:20;;;;;;;5.50;3.05;;;25.10;73.40;;;;;;5069808;28;20390;-88
2023/08/11 09:16:46;;;;;;;4.57;3.00;;;24.90;70.20;;;;;;5071091;28;20402;-90
2023/08/11 09:19:12;;;;;;;5.63;2.70;;;25.10;69.20;;;;;;5069858;28;20426;-90
2023/08/11 09:21:42;;;;;;;4.10;2.70;;;25.10;66.00;;;;;;5070506;28;20406;-89
2023/08/11 09:24:12;;;;;;;4.18;2.80;;;25.10;67.00;;;;;;5070823;28;20910;-89
2023/08/11 09:26:43;;;;;;;9.60;3.08;;;25.30;73.20;;;;;;5052797;28;20405;-90
2023/08/11 09:29:09;;;;;;;4.68;2.70;;;25.40;66.10;;;;;;5071187;28;20493;-90
2023/08/11 09:31:36;;;;;;;7.18;3.25;;;25.50;69.50;;;;;;5069350;28;20398;-90
2023/08/11 09:34:12;;;;;;;3.75;2.45;;;25.60;67.30;;;;;;5053871;28;20968;-91
2023/08/11 09:36:37;;;;;;;46.83;5.90;;;25.90;67.20;;;;;;5052999;28;20759;-89
2023/08/11 09:39:07;;;;;;;4.53;2.70;;;26.10;66.00;;;;;;5053280;28;20417;-89
2023/08/11 09:41:43;;;;;;;3.92;2.63;;;26.20;64.40;;;;;;5053364;28;20405;-90
2023/08/11 09:44:10;;;;;;;4.25;2.53;;;26.40;64.00;;;;;;5052191;28;20401;-89
2023/08/11 09:46:37;;;;;;;4.20;2.33;;;26.20;62.20;;;;;;5069814;28;20405;-88
2023/08/11 09:49:04;;;;;;;3.58;2.30;;;26.20;62.90;;;;;;5068937;28;20413;-87
2023/08/11 09:51:31;;;;;;;4.97;2.42;;;26.70;66.60;;;;;;5070177;28;20747;-89
2023/08/11 09:54:01;;;;;;;5.80;2.25;;;26.90;61.90;;;;;;5068789;28;20724;-88
2023/08/11 09:56:29;;;;;;;4.17;2.10;;;27.10;65.90;;;;;;5052873;28;20467;-87
2023/08/11 09:58:57;;;;;;;4.28;1.90;;;27.10;62.60;;;;;;5052586;28;20495;-86
2023/08/11 10:01:24;;;;;;;4.93;1.80;;;27.00;61.70;;;;;;5052469;28;20483;-90
2023/08/11 10:03:55;;;;;;;5.07;2.03;;;27.00;61.50;;;;;;5070190;28;20876;-90
2023/08/11 10:06:25;;;;;;;3.38;1.58;;;26.90;57.60;;;;;;5052364;28;20555;-91
2023/08/11 10:08:53;;;;;;;3.50;1.67;;;26.80;60.70;;;;;;5054771;28;20736;-90
2023/08/11 10:11:21;;;;;;;3.95;1.90;;;26.90;63.00;;;;;;5053799;28;20983;-92
2023/08/11 10:13:48;;;;;;;4.80;1.92;;;27.20;59.50;;;;;;5052421;28;20417;-89
2023/08/11 10:16:14;;;;;;;4.25;1.67;;;27.50;57.60;;;;;;5069463;28;20777;-87
2023/08/11 10:18:42;;;;;;;5.18;1.60;;;27.50;56.70;;;;;;5067597;28;20763;-87
2023/08/11 10:21:08;;;;;;;3.63;1.75;;;27.60;58.30;;;;;;5069599;28;20422;-88
2023/08/11 10:23:35;;;;;;;3.93;1.70;;;27.70;57.00;;;;;;5052206;28;20406;-88
2023/08/11 10:26:00;;;;;;;3.95;2.05;;;28.30;58.20;;;;;;5069416;28;21176;-87
2023/08/11 10:28:26;;;;;;;3.78;2.10;;;28.20;56.00;;;;;;5052507;28;20504;-89
2023/08/11 10:30:57;;;;;;;4.00;1.70;;;28.40;56.00;;;;;;5053563;28;20417;-90
2023/08/11 10:33:22;;;;;;;4.07;1.75;;;28.70;56.80;;;;;;5069445;28;20407;-86
2023/08/11 10:35:50;;;;;;;3.30;1.75;;;29.00;54.90;;;;;;5068127;28;20540;-89
2023/08/11 10:38:36;;;;;;;3.70;1.85;;;29.40;55.10;;;;;;5053005;28;20782;-90
2023/08/11 10:41:07;;;;;;;3.03;1.60;;;29.80;52.60;;;;;;5050292;28;20822;-88
2023/08/11 10:43:37;;;;;;;3.00;1.55;;;30.20;53.50;;;;;;5069403;28;20414;-88
2023/08/11 10:46:30;;;;;;;4.03;1.83;;;30.50;53.00;;;;;;5052083;28;20402;-90
2023/08/11 10:49:21;;;;;;;4.30;1.83;;;30.60;49.90;;;;;;5050934;28;20497;-87
2023/08/11 10:51:47;;;;;;;3.25;1.67;;;30.30;50.10;;;;;;5069049;28;20418;-90
2023/08/11 10:54:22;;;;;;;6.17;1.60;;;30.00;51.40;;;;;;5051695;28;20420;-88
2023/08/11 10:56:47;;;;;;;3.60;1.73;;;29.80;50.20;;;;;;5051104;28;20405;-88
2023/08/11 10:59:20;;;;;;;6.20;1.80;;;29.40;51.00;;;;;;5051860;28;20938;-87
2023/08/11 11:01:49;;;;;;;4.03;1.50;;;29.60;51.20;;;;;;5050458;28;20489;-87
2023/08/11 11:04:16;;;;;;;4.82;1.48;;;29.70;55.60;;;;;;5068933;28;20665;-90
2023/08/11 11:06:44;;;;;;;3.55;1.50;;;30.00;53.50;;;;;;5068106;28;20871;-88
2023/08/11 11:09:11;;;;;;;4.68;1.55;;;29.90;52.60;;;;;;5052630;28;20447;-90
2023/08/11 11:11:37;;;;;;;4.15;1.55;;;30.00;52.90;;;;;;5069154;28;20413;-87
2023/08/11 11:14:04;;;;;;;3.75;1.50;;;30.20;51.30;;;;;;5068441;28;20406;-87
2023/08/11 11:16:32;;;;;;;4.10;1.50;;;30.60;54.80;;;;;;5052063;28;20406;-88
2023/08/11 11:19:02;;;;;;;3.33;1.35;;;30.70;54.20;;;;;;5050934;28;20410;-90
2023/08/11 11:21:28;;;;;;;3.17;1.30;;;31.30;50.20;;;;;;5049087;28;20409;-91
2023/08/11 11:23:54;;;;;;;2.83;1.40;;;31.40;51.30;;;;;;5051158;28;20406;-89
2023/08/11 11:26:25;;;;;;;3.83;1.60;;;31.60;49.40;;;;;;5052291;28;20501;-90
2023/08/11 11:28:52;;;;;;;4.80;1.58;;;31.50;48.40;;;;;;5064361;28;20414;-88
2023/08/11 11:31:19;;;;;;;4.18;1.60;;;31.70;50.40;;;;;;5052034;28;20459;-88
2023/08/11 11:33:45;;;;;;;4.25;1.80;;;32.00;49.00;;;;;;5069601;28;20398;-91
2023/08/11 11:36:12;;;;;;;4.03;1.80;;;32.30;47.00;;;;;;5050079;28;20402;-90
2023/08/11 11:38:39;;;;;;;3.53;1.70;;;32.30;47.40;;;;;;5050000;28;20398;-91
2023/08/11 11:41:10;;;;;;;3.90;1.58;;;32.40;47.40;;;;;;5049996;28;20948;-88
2023/08/11 11:43:36;;;;;;;3.50;1.77;;;32.60;47.90;;;;;;5052009;28;20405;-88
2023/08/11 11:46:02;;;;;;;3.27;1.43;;;32.60;47.40;;;;;;5050170;28;20399;-88
2023/08/11 11:48:27;;;;;;;3.15;1.40;;;32.70;49.60;;;;;;5051380;28;20406;-91
2023/08/11 11:50:53;;;;;;;4.47;1.88;;;32.60;51.30;;;;;;5050672;28;20951;-88
2023/08/11 11:53:22;;;;;;;4.15;2.03;;;32.60;47.90;;;;;;5068093;28;20542;-90
2023/08/11 11:55:51;;;;;;;4.38;2.22;;;32.50;47.70;;;;;;5067814;28;20755;-90
2023/08/11 11:58:17;;;;;;;3.97;2.30;;;32.30;49.80;;;;;;5050084;28;20918;-90
2023/08/11 12:00:46;;;;;;;3.53;2.10;;;32.10;49.80;;;;;;5051021;28;20509;-89
2023/08/11 12:03:12;;;;;;;2.72;1.90;;;32.20;52.90;;;;;;5066772;28;20421;-88
2023/08/11 12:05:38;;;;;;;3.47;2.03;;;32.50;49.60;;;;;;5068069;28;20467;-93
2023/08/11 12:08:23;;;;;;;3.60;1.83;;;32.40;49.00;;;;;;5051220;28;20798;-89
2023/08/11 12:10:49;;;;;;;5.97;2.35;;;32.60;51.60;;;;;;5068243;28;20410;-93
2023/08/11 12:13:17;;;;;;;4.35;2.33;;;32.80;47.70;;;;;;5052410;28;20489;-94
2023/08/11 12:15:46;;;;;;;4.10;2.25;;;32.70;47.10;;;;;;5032263;28;20924;-89
2023/08/11 12:18:13;;;;;;;6.22;2.33;;;32.60;50.50;;;;;;5052055;28;20790;-90
2023/08/11 12:20:40;;;;;;;3.33;1.90;;;32.30;47.70;;;;;;5067089;28;20537;-90
2023/08/11 12:23:06;;;;;;;4.00;1.90;;;32.30;48.20;;;;;;5052072;28;20432;-90
2023/08/11 12:25:32;;;;;;;4.27;1.80;;;32.30;49.40;;;;;;5067489;28;20390;-92
2023/08/11 12:28:01;;;;;;;4.20;1.90;;;32.40;49.30;;;;;;5052096;28;20485;-91
2023/08/11 12:30:27;;;;;;;4.57;2.40;;;32.60;49.80;;;;;;5051228;28;20400;-89
2023/08/11 12:32:53;;;;;;;3.47;1.88;;;32.60;49.20;;;;;;5050485;28;20410;-90
2023/08/11 12:35:18;;;;;;;3.20;2.03;;;32.90;50.70;;;;;;5067661;28;20402;-90
2023/08/11 12:37:44;;;;;;;2.72;2.00;;;33.20;49.50;;;;;;5066221;28;20442;-90